createdAt,value
2023-02-23T00:04:36.063Z,41.58
2023-02-23T00:10:39.497Z,44.38
2023-02-23T00:16:45.492Z,39.50
2023-02-23T00:22:49.071Z,44.20
2023-02-23T00:28:52.593Z,42.35
2023-02-23T00:34:58.448Z,44.38
2023-02-23T00:41:02.213Z,43.55
2023-02-23T00:47:05.749Z,43.53
2023-02-23T00:53:11.591Z,45.40
2023-02-23T00:59:15.922Z,41.05
2023-02-23T01:05:20.673Z,44.85
2023-02-23T01:11:27.846Z,43.38
2023-02-23T01:17:31.598Z,42.20
2023-02-23T01:23:35.163Z,46.47
2023-02-23T01:29:40.112Z,43.05
2023-02-23T01:35:43.664Z,42.08
2023-02-23T01:41:47.164Z,42.47
2023-02-23T01:47:52.301Z,40.95
2023-02-23T01:53:59.933Z,40.25
2023-02-23T02:00:07.787Z,41.08
2023-02-23T02:06:14.659Z,40.72
2023-02-23T02:12:19.209Z,44.85
2023-02-23T02:18:26.780Z,47.72
2023-02-23T02:24:40.418Z,35.30
2023-02-23T02:31:05.979Z,37.35
2023-02-23T02:37:28.205Z,37.00
2023-02-23T02:43:37.543Z,36.13
2023-02-23T02:49:46.994Z,36.00
2023-02-23T02:55:51.033Z,39.55
2023-02-23T03:02:13.495Z,40.65
2023-02-23T03:08:40.776Z,40.85
2023-02-23T03:15:06.020Z,43.35
2023-02-23T03:21:33.115Z,39.30
2023-02-23T03:28:02.492Z,40.83
2023-02-23T03:34:29.426Z,39.63
2023-02-23T03:40:54.423Z,43.95
2023-02-23T03:47:17.360Z,43.45
2023-02-23T03:53:40.583Z,42.17
2023-02-23T04:00:06.832Z,42.90
2023-02-23T04:06:31.054Z,48.17
2023-02-23T04:12:54.142Z,50.00
2023-02-23T04:18:59.356Z,48.65
2023-02-23T04:25:02.954Z,47.70
2023-02-23T04:31:06.513Z,43.83
2023-02-23T04:37:11.672Z,45.10
2023-02-23T04:43:15.302Z,44.78
2023-02-23T04:49:18.721Z,42.95
2023-02-23T04:55:24.831Z,43.13
2023-02-23T05:01:29.415Z,40.75
2023-02-23T05:07:32.860Z,41.15
2023-02-23T05:13:37.616Z,44.50
2023-02-23T05:19:41.216Z,43.55
2023-02-23T05:25:44.857Z,40.42
2023-02-23T05:31:49.720Z,40.90
2023-02-23T05:37:53.176Z,44.30
2023-02-23T05:43:56.761Z,51.72
2023-02-23T05:50:01.743Z,45.03
2023-02-23T05:56:06.025Z,49.45
2023-02-23T06:02:09.694Z,44.58
2023-02-23T06:08:14.495Z,41.72
2023-02-23T06:14:17.882Z,47.83
2023-02-23T06:20:21.648Z,48.08
2023-02-23T06:26:26.407Z,46.92
2023-02-23T06:32:29.852Z,47.58
2023-02-23T06:38:33.316Z,43.80
2023-02-23T06:44:38.328Z,43.00
2023-02-23T06:50:41.746Z,49.00
2023-02-23T06:56:45.413Z,44.30
2023-02-23T07:02:50.232Z,60.20
2023-02-23T07:08:53.624Z,61.47
2023-02-23T07:14:57.034Z,54.45
2023-02-23T07:21:02.263Z,57.25
2023-02-23T07:27:05.790Z,56.00
2023-02-23T07:33:09.200Z,53.22
2023-02-23T07:39:14.081Z,50.42
2023-02-23T07:45:18.020Z,51.35
2023-02-23T07:51:21.614Z,54.25
2023-02-23T07:57:27.134Z,56.92
2023-02-23T08:03:30.637Z,59.78
2023-02-23T08:09:35.497Z,60.45
2023-02-23T08:15:41.036Z,58.08
2023-02-23T08:21:44.681Z,61.33
2023-02-23T08:27:48.246Z,56.10
2023-02-23T08:33:53.085Z,55.75
2023-02-23T08:39:56.696Z,63.65
2023-02-23T08:46:00.233Z,55.33
2023-02-23T08:52:05.073Z,55.28
2023-02-23T08:58:10.699Z,66.97
2023-02-23T09:04:14.324Z,63.55
2023-02-23T09:10:20.911Z,70.68
2023-02-23T09:16:24.333Z,69.10
2023-02-23T09:22:28.025Z,66.32
2023-02-23T09:28:34.071Z,69.07
2023-02-23T09:34:37.775Z,62.60
2023-02-23T09:40:46.381Z,67.78
2023-02-23T09:46:57.679Z,62.92
2023-02-23T09:53:04.184Z,64.63
2023-02-23T09:59:10.031Z,64.00
2023-02-23T10:05:16.879Z,58.33
2023-02-23T10:11:25.713Z,51.58
2023-02-23T10:17:36.658Z,56.10
2023-02-23T10:23:43.636Z,55.40
2023-02-23T10:29:50.240Z,53.92
2023-02-23T10:36:07.393Z,54.45
2023-02-23T10:42:18.963Z,55.53
2023-02-23T10:48:24.428Z,51.65
2023-02-23T10:54:38.084Z,50.35
2023-02-23T11:00:43.025Z,47.70
2023-02-23T11:06:46.810Z,43.80
2023-02-23T11:12:50.791Z,35.72
2023-02-23T11:18:57.309Z,48.85
2023-02-23T11:25:06.781Z,43.95
2023-02-23T11:31:15.799Z,39.78
2023-02-23T11:37:24.224Z,40.30
2023-02-23T11:43:28.085Z,37.03
2023-02-23T11:49:33.263Z,39.47
2023-02-23T11:55:39.044Z,36.03
2023-02-23T12:01:45.641Z,30.20
2023-02-23T12:07:52.079Z,27.42
2023-02-23T12:14:01.066Z,26.98
2023-02-23T12:20:11.429Z,23.83
2023-02-23T12:26:19.047Z,21.17
2023-02-23T12:32:26.916Z,24.85
2023-02-23T12:38:33.136Z,18.95
2023-02-23T12:44:39.374Z,20.45
2023-02-23T12:50:48.303Z,21.33
2023-02-23T12:56:56.588Z,20.00
2023-02-23T13:03:13.248Z,18.00
2023-02-23T13:09:26.602Z,20.80
2023-02-23T13:15:33.451Z,16.67
2023-02-23T13:21:39.007Z,17.55
2023-02-23T13:27:47.075Z,17.00
2023-02-23T13:33:51.610Z,17.98
2023-02-23T13:39:58.543Z,18.60
2023-02-23T13:46:11.815Z,16.58
2023-02-23T13:52:31.286Z,15.60
2023-02-23T13:58:35.042Z,14.82
2023-02-23T14:04:43.026Z,14.18
2023-02-23T14:10:46.843Z,12.20
2023-02-23T14:17:05.547Z,12.85
2023-02-23T14:23:31.473Z,10.63
2023-02-23T14:29:41.235Z,9.93
2023-02-23T14:35:46.203Z,9.88
2023-02-23T14:41:54.805Z,8.45
2023-02-23T14:48:01.844Z,8.13
2023-02-23T14:54:15.563Z,7.60
2023-02-23T15:00:26.110Z,7.95
2023-02-23T15:06:29.529Z,7.80
2023-02-23T15:12:37.974Z,7.90
2023-02-23T15:18:44.734Z,9.65
2023-02-23T15:24:50.265Z,10.50
2023-02-23T15:30:55.897Z,10.75
2023-02-23T15:37:03.591Z,10.23
2023-02-23T15:43:07.156Z,9.73
2023-02-23T15:49:13.381Z,11.98
2023-02-23T15:55:20.192Z,10.70
2023-02-23T16:01:25.670Z,13.23
2023-02-23T16:07:38.216Z,14.80
2023-02-23T16:13:45.882Z,14.27
2023-02-23T16:19:49.404Z,13.67
2023-02-23T16:25:54.609Z,11.23
2023-02-23T16:32:01.601Z,11.90
2023-02-23T16:38:06.066Z,10.40
2023-02-23T16:44:09.774Z,12.50
2023-02-23T16:50:20.581Z,10.00
2023-02-23T16:56:25.680Z,9.55
2023-02-23T17:02:29.194Z,10.40
2023-02-23T17:08:35.767Z,11.17
2023-02-23T17:14:40.122Z,8.23
2023-02-23T17:20:43.648Z,5.07
2023-02-23T17:26:48.644Z,6.68
2023-02-23T17:32:53.452Z,5.45
2023-02-23T17:38:58.878Z,10.15
2023-02-23T17:45:04.686Z,8.95
2023-02-23T17:51:09.172Z,7.82
2023-02-23T17:57:12.719Z,8.38
2023-02-23T18:03:17.868Z,7.40
2023-02-23T18:09:21.421Z,5.68
2023-02-23T18:15:24.847Z,6.25
2023-02-23T18:21:30.453Z,7.28
2023-02-23T18:27:33.854Z,7.70
2023-02-23T18:33:37.351Z,9.88
2023-02-23T18:39:42.130Z,9.52
2023-02-23T18:45:45.544Z,12.25
2023-02-23T18:51:49.096Z,11.50
2023-02-23T18:57:53.986Z,11.70
2023-02-23T19:03:59.356Z,11.90
2023-02-23T19:10:03.153Z,16.35
2023-02-23T19:16:08.765Z,11.07
2023-02-23T19:22:12.198Z,14.18
2023-02-23T19:28:15.681Z,16.58
2023-02-23T19:34:20.809Z,13.52
2023-02-23T19:40:29.224Z,16.02
2023-02-23T19:46:32.706Z,17.88
2023-02-23T19:52:38.778Z,11.80
2023-02-23T19:58:44.803Z,15.32
2023-02-23T20:04:49.380Z,12.02
2023-02-23T20:10:54.433Z,15.25
2023-02-23T20:16:57.912Z,15.95
2023-02-23T20:23:01.702Z,13.60
2023-02-23T20:29:11.376Z,13.38
2023-02-23T20:35:15.465Z,12.75
2023-02-23T20:41:19.259Z,16.40
2023-02-23T20:47:24.734Z,13.90
2023-02-23T20:53:28.205Z,15.85
2023-02-23T20:59:32.453Z,15.10
2023-02-23T21:05:41.156Z,8.80
2023-02-23T21:11:44.837Z,9.18
2023-02-23T21:17:48.478Z,12.65
2023-02-23T21:23:53.266Z,12.63
2023-02-23T21:29:56.684Z,10.40
2023-02-23T21:36:00.179Z,16.38
2023-02-23T21:42:05.975Z,11.70
2023-02-23T21:48:09.431Z,10.90
2023-02-23T21:54:13.356Z,11.23
2023-02-23T22:00:19.326Z,14.15
2023-02-23T22:06:23.922Z,8.45
2023-02-23T22:12:27.656Z,12.85
2023-02-23T22:18:32.640Z,12.00
2023-02-23T22:24:36.143Z,7.97
2023-02-23T22:30:39.879Z,9.48
2023-02-23T22:36:44.874Z,9.48
2023-02-23T22:42:49.210Z,11.15
2023-02-23T22:48:52.598Z,12.88
2023-02-23T22:54:57.460Z,10.25
2023-02-23T23:01:04.173Z,10.73
2023-02-23T23:07:08.285Z,10.15
2023-02-23T23:13:13.026Z,8.18
2023-02-23T23:19:17.225Z,12.18
2023-02-23T23:25:23.137Z,11.55
2023-02-23T23:31:29.305Z,6.00
2023-02-23T23:37:32.889Z,11.43
2023-02-23T23:43:37.028Z,7.47
2023-02-23T23:49:42.402Z,14.30
2023-02-23T23:55:45.794Z,5.78
